Lady Mary — WCY4834 — position and weather

sailwx.info

Track history (hours):
 
Tides and Currents Weather Stations Pressure Air Temp Water Temp Dewpoint Dewpoint Depression Visibility Wind Speed Wind Dir Waves Ship Positions

Lady Mary

Owner: BLACKMAN, JOHN H, SEATTLE, WA. More information available from US FCC via Universal Licensing System and Coast Guard Vessel Documentation Center.

Last reported at 2017-May-23 16:59 UTC. Time now 2017-May-23 17:04 UTC.
Position N 47°36' W 122°20'.

Length 26 m.

Type: Passenger vessel. MMSI: 367013060.

Date/timePositionNaut miles runAvg speedWind from/ knotsBaromVisibWave heightAir tempDewpointWater temp
2017-May-23 16:59N 47°36' W 122°20'0 0.0
2017-May-23 16:29N 47°36' W 122°20'0 0.0
2017-May-23 16:00N 47°36' W 122°20'0 0.0
2017-May-23 15:30N 47°36' W 122°20'0 0.0
2017-May-23 15:00N 47°36' W 122°20'0 0.0
2017-May-23 14:28N 47°36' W 122°20'0 0.0
2017-May-23 13:29N 47°36' W 122°20'0 0.0
2017-May-23 12:59N 47°36' W 122°20'0 0.0
2017-May-23 12:29N 47°36' W 122°20'0 0.0
2017-May-23 11:59N 47°36' W 122°20'0 0.0
2017-May-23 11:30N 47°36' W 122°20'0 0.0
2017-May-23 11:00N 47°36' W 122°20'0 0.0
2017-May-23 10:27N 47°36' W 122°20'0 0.0
2017-May-23 09:55N 47°36' W 122°20'0 0.0
2017-May-23 09:28N 47°36' W 122°20'0 0.0
2017-May-23 08:59N 47°36' W 122°20'0 0.0
2017-May-23 08:29N 47°36' W 122°20'0 0.0
2017-May-23 07:59N 47°36' W 122°20'0 0.0
2017-May-23 07:29N 47°36' W 122°20'0 0.0
2017-May-23 07:00N 47°36' W 122°20'0 0.0
2017-May-23 06:30N 47°36' W 122°20'0 0.0
2017-May-23 06:00N 47°36' W 122°20'0 0.0
2017-May-23 05:24N 47°36' W 122°20'0 0.0
2017-May-23 04:58N 47°36' W 122°20'0 0.0
2017-May-23 04:29N 47°36' W 122°20'0 0.0
2017-May-23 03:59N 47°36' W 122°20'0 0.0
2017-May-23 03:29N 47°36' W 122°20'0 0.0
2017-May-23 02:59N 47°36' W 122°20'0 0.0
2017-May-23 02:30N 47°36' W 122°20'0 0.0
2017-May-23 02:00N 47°36' W 122°20'0 0.0
2017-May-23 01:24N 47°36' W 122°20'0 0.0
2017-May-23 01:00N 47°36' W 122°20'0 0.0
2017-May-23 00:29N 47°36' W 122°20'0 0.0
2017-May-22 23:55N 47°36' W 122°20'0 0.0
2017-May-22 23:29N 47°36' W 122°20'0 0.0
2017-May-22 22:59N 47°36' W 122°20'0 0.0
2017-May-22 22:30N 47°36' W 122°20'0 0.0
2017-May-22 22:00N 47°36' W 122°20'0 0.0
2017-May-22 21:30N 47°36' W 122°20'0 0.0
2017-May-22 20:58N 47°36' W 122°20'0 0.0
2017-May-22 20:31N 47°36' W 122°20'0 0.0
2017-May-22 19:58N 47°36' W 122°20'0 0.0
2017-May-22 19:28N 47°36' W 122°20'4 7.6
2017-May-22 19:00N 47°38' W 122°25'2 4.2
2017-May-22 18:31N 47°40' W 122°24'0 0.5
2017-May-22 18:00N 47°40' W 122°24'3 5.6
2017-May-22 17:30N 47°39' W 122°20'3 6.6
2017-May-22 17:00N 47°40' W 122°15'2 3.3
2017-May-22 16:26N 47°40' W 122°13'0 0.0
2017-May-22 15:57N 47°40' W 122°13'0 0.0
2017-May-22 15:27N 47°40' W 122°13'0 0.0
2017-May-22 14:57N 47°40' W 122°13'0 0.0
2017-May-22 13:58N 47°40' W 122°13'0 0.0
2017-May-22 13:28N 47°40' W 122°13'0 0.0
2017-May-22 12:59N 47°40' W 122°13'0 0.0
2017-May-22 12:29N 47°40' W 122°13'0 0.0
2017-May-22 11:56N 47°40' W 122°13'0 0.0
2017-May-22 11:30N 47°40' W 122°13'0 0.0
2017-May-22 11:00N 47°40' W 122°13'0 0.0
2017-May-22 10:30N 47°40' W 122°13'0 0.0
2017-May-22 09:55N 47°40' W 122°13'0 0.0
2017-May-22 09:28N 47°40' W 122°13'0 0.0
2017-May-22 08:58N 47°40' W 122°13'0 0.0
2017-May-22 08:23N 47°40' W 122°13'0 0.0
2017-May-22 07:56N 47°40' W 122°13'0 0.0
2017-May-22 07:26N 47°40' W 122°13'0 0.0
2017-May-22 06:57N 47°40' W 122°13'0 0.0
2017-May-22 06:30N 47°40' W 122°13'0 0.0
2017-May-22 05:57N 47°40' W 122°13'0 0.0
2017-May-22 05:28N 47°40' W 122°13'0 0.0
2017-May-22 04:52N 47°40' W 122°13'0 0.0
2017-May-22 04:28N 47°40' W 122°13'0 0.0
2017-May-22 03:11N 47°40' W 122°13'0 0.0
2017-May-22 02:42N 47°40' W 122°13'0 0.0
2017-May-22 02:24N 47°40' W 122°13'0 0.0
2017-May-22 01:51N 47°40' W 122°13'0 0.0
2017-May-22 01:13N 47°40' W 122°13'0 0.0
2017-May-22 00:55N 47°40' W 122°13'0 0.0
2017-May-22 00:28N 47°40' W 122°13'0 0.0
2017-May-21 23:55N 47°40' W 122°13'0 0.0
2017-May-21 23:29N 47°40' W 122°13'0 0.0
2017-May-21 22:59N 47°40' W 122°13'0 0.0
2017-May-21 22:29N 47°40' W 122°13'0 0.0
2017-May-21 21:50N 47°40' W 122°13'0 0.0
2017-May-21 20:57N 47°40' W 122°13'1 3.0
2017-May-21 20:30N 47°41' W 122°14'2 4.6
2017-May-21 20:00N 47°39' W 122°15'2 4.0
2017-May-21 19:30N 47°37' W 122°14'0 0.4
2017-May-21 19:00N 47°37' W 122°15'3 5.3
2017-May-21 18:30N 47°39' W 122°14'1 2.4
2017-May-21 17:55N 47°40' W 122°13'0 0.0
2017-May-21 17:29N 47°40' W 122°13'0 0.0
2017-May-21 16:59N 47°40' W 122°13'0 0.0
2017-May-21 16:26N 47°40' W 122°13'0 0.0
2017-May-21 15:57N 47°40' W 122°13'0 0.0
2017-May-21 15:27N 47°40' W 122°13'0 0.0
2017-May-21 14:57N 47°40' W 122°13'0 0.0
2017-May-21 13:58N 47°40' W 122°13'0 0.0
2017-May-21 13:28N 47°40' W 122°13'0 0.0
2017-May-21 12:59N 47°40' W 122°13'0 0.0
2017-May-21 12:29N 47°40' W 122°13'0 0.0
2017-May-21 11:59N 47°40' W 122°13'0 0.0
2017-May-21 11:30N 47°40' W 122°13'0 0.0
2017-May-21 11:00N 47°40' W 122°13'0 0.0
2017-May-21 10:30N 47°40' W 122°13'0 0.0
2017-May-21 09:58N 47°40' W 122°13'0 0.0
2017-May-21 09:28N 47°40' W 122°13'0 0.0
2017-May-21 08:58N 47°40' W 122°13'0 0.0
2017-May-21 08:29N 47°40' W 122°13'0 0.0
2017-May-21 07:59N 47°40' W 122°13'0 0.1
2017-May-21 07:30N 47°40' W 122°13'4 7.6
2017-May-21 07:00N 47°39' W 122°18'2 4.2
2017-May-21 06:31N 47°38' W 122°20'0 0.0
2017-May-21 06:01N 47°38' W 122°20'1 2.3
2017-May-21 05:30N 47°39' W 122°20'3 5.4
2017-May-21 05:00N 47°39' W 122°16'2 4.6
2017-May-21 04:31N 47°37' W 122°15'3 5.5
2017-May-21 04:01N 47°39' W 122°17'2 4.1
2017-May-21 03:31N 47°38' W 122°20'1 1.1
2017-May-21 03:01N 47°38' W 122°20'0 0.0
2017-May-21 02:31N 47°38' W 122°20'0 0.0
2017-May-21 02:01N 47°38' W 122°20'0 0.0
2017-May-21 01:31N 47°38' W 122°20'0 0.6
2017-May-21 01:01N 47°38' W 122°20'2 3.6
2017-May-21 00:31N 47°39' W 122°18'4 7.6
2017-May-21 00:00N 47°40' W 122°13'0 0.0
2017-May-20 23:30N 47°40' W 122°13'0 0.0
2017-May-20 23:00N 47°40' W 122°13'0 0.0
2017-May-20 22:30N 47°40' W 122°13'0 0.1
2017-May-20 22:00N 47°40' W 122°13'4 7.2
2017-May-20 21:31N 47°37' W 122°15'  
2017-May-17 20:39N 47°40' W 122°13'0 0.0
2017-May-17 20:27N 47°40' W 122°13'0 0.0
2017-May-17 19:57N 47°40' W 122°13'0 0.0
2017-May-17 19:30N 47°40' W 122°13'0 0.0
2017-May-17 18:58N 47°40' W 122°13'0 0.0
2017-May-17 18:25N 47°40' W 122°13'0 0.0
2017-May-17 17:58N 47°40' W 122°13'0 0.0
2017-May-17 17:29N 47°40' W 122°13'0 0.0
2017-May-17 16:59N 47°40' W 122°13'0 0.0
2017-May-17 16:06N 47°40' W 122°13'0 0.0
2017-May-17 16:00N 47°40' W 122°13'0 0.0
2017-May-17 15:30N 47°40' W 122°13'0 0.0
2017-May-17 15:00N 47°40' W 122°13'0 0.0
2017-May-17 14:25N 47°40' W 122°13'0 0.0
2017-May-17 13:25N 47°40' W 122°13'0 0.0
2017-May-17 12:56N 47°40' W 122°13'0 0.0
2017-May-17 12:14N 47°40' W 122°13'0 0.0
2017-May-17 11:56N 47°40' W 122°13'0 0.0
2017-May-17 10:16N 47°40' W 122°13'0 0.0
2017-May-17 09:58N 47°40' W 122°13'0 0.0
2017-May-17 09:28N 47°40' W 122°13'0 0.0
2017-May-17 08:58N 47°40' W 122°13'0 0.0
2017-May-17 08:29N 47°40' W 122°13'0 0.0
2017-May-17 07:59N 47°40' W 122°13'0 0.0
2017-May-17 07:29N 47°40' W 122°13'0 0.0
2017-May-17 06:54N 47°40' W 122°13'0 0.0
2017-May-17 06:24N 47°40' W 122°13'0 0.0
2017-May-17 05:55N 47°40' W 122°13'0 0.0
2017-May-17 05:25N 47°40' W 122°13'0 0.0
2017-May-17 04:55N 47°40' W 122°13'0 0.0
2017-May-17 03:50N 47°40' W 122°13'0 0.3
2017-May-17 03:30N 47°40' W 122°13'4 7.6
2017-May-17 02:57N 47°39' W 122°18'1 3.3
2017-May-17 02:30N 47°38' W 122°20'2 3.6
2017-May-17 01:59N 47°39' W 122°18'4 7.3
2017-May-17 01:30N 47°40' W 122°13'1 1.2
2017-May-17 01:00N 47°40' W 122°13'0 0.0
2017-May-17 00:30N 47°40' W 122°13'0 0.0
2017-May-17 00:00N 47°40' W 122°13'0 0.0
2017-May-16 23:30N 47°40' W 122°13'0 0.0
2017-May-16 23:00N 47°40' W 122°13'0 0.0
2017-May-16 22:30N 47°40' W 122°13'0 0.0
2017-May-16 22:00N 47°40' W 122°13'0 0.0
2017-May-16 21:29N 47°40' W 122°13'0 0.0
2017-May-16 21:00N 47°40' W 122°13'0 0.0
2017-May-16 20:30N 47°40' W 122°13'0 0.0
2017-May-16 20:00N 47°40' W 122°13'0 0.0
2017-May-16 19:30N 47°40' W 122°13'0 0.0
2017-May-16 19:00N 47°40' W 122°13'0 0.0
2017-May-16 18:30N 47°40' W 122°13'0 0.0
2017-May-16 18:00N 47°40' W 122°13'0 0.0
2017-May-16 17:30N 47°40' W 122°13'0 0.0
2017-May-16 17:00N 47°40' W 122°13'0 0.0
2017-May-16 16:30N 47°40' W 122°13'0 0.0
2017-May-16 16:00N 47°40' W 122°13'0 0.0
2017-May-16 15:30N 47°40' W 122°13'0 0.0
2017-May-16 15:00N 47°40' W 122°13'0 0.0
2017-May-16 14:00N 47°40' W 122°13'0 0.0
2017-May-16 13:30N 47°40' W 122°13'0 0.0
2017-May-16 13:00N 47°40' W 122°13'0 0.0
2017-May-16 12:30N 47°40' W 122°13'0 0.0
2017-May-16 12:00N 47°40' W 122°13'0 0.0
2017-May-16 11:30N 47°40' W 122°13'0 0.0
2017-May-16 11:00N 47°40' W 122°13'0 0.0
2017-May-16 10:30N 47°40' W 122°13'0 0.0
2017-May-16 10:00N 47°40' W 122°13'0 0.0
2017-May-16 09:30N 47°40' W 122°13'0 0.0
2017-May-16 09:00N 47°40' W 122°13'0 0.0
2017-May-16 08:30N 47°40' W 122°13'0 0.0
2017-May-16 08:00N 47°40' W 122°13'0 0.0
2017-May-16 07:30N 47°40' W 122°13'0 0.0
2017-May-16 07:00N 47°40' W 122°13'0 0.0
2017-May-16 06:30N 47°40' W 122°13'0 0.0
2017-May-16 06:00N 47°40' W 122°13'0 0.0
2017-May-16 05:30N 47°40' W 122°13'0 0.0
2017-May-16 05:00N 47°40' W 122°13'0 0.0
2017-May-16 04:30N 47°40' W 122°13'0 0.0
2017-May-16 04:00N 47°40' W 122°13'0 0.0
2017-May-16 03:30N 47°40' W 122°13'0 0.0
2017-May-16 03:00N 47°40' W 122°13'0 0.0
2017-May-16 02:30N 47°40' W 122°13'0 0.0
2017-May-16 02:00N 47°40' W 122°13'0 0.0
2017-May-16 01:30N 47°40' W 122°13'0 0.0
2017-May-16 01:00N 47°40' W 122°13'0 0.0
2017-May-16 00:30N 47°40' W 122°13'0 0.0
2017-May-16 00:00N 47°40' W 122°13'0 0.0
2017-May-15 23:30N 47°40' W 122°13'0 0.0
2017-May-15 23:00N 47°40' W 122°13'0 0.0
2017-May-15 22:30N 47°40' W 122°13'0 0.0
2017-May-15 22:00N 47°40' W 122°13'0 0.0
2017-May-15 21:30N 47°40' W 122°13'0 0.0
2017-May-15 21:00N 47°40' W 122°13'0 0.0
2017-May-15 20:30N 47°40' W 122°13'0 0.0
2017-May-15 19:59N 47°40' W 122°13'0 0.0
2017-May-15 19:30N 47°40' W 122°13'0 0.0
2017-May-15 19:00N 47°40' W 122°13'0 0.0
2017-May-15 18:30N 47°40' W 122°13'0 0.0
2017-May-15 18:00N 47°40' W 122°13'0 0.0
2017-May-15 17:30N 47°40' W 122°13'0 0.0
2017-May-15 17:00N 47°40' W 122°13'0 0.0
2017-May-15 16:30N 47°40' W 122°13'0 0.0
2017-May-15 16:00N 47°40' W 122°13'0 0.0
2017-May-15 15:30N 47°40' W 122°13'0 0.0
2017-May-15 15:00N 47°40' W 122°13'0 0.0
2017-May-15 13:50N 47°40' W 122°13'0 0.0
2017-May-15 13:30N 47°40' W 122°13'0 0.0
2017-May-15 13:00N 47°40' W 122°13'0 0.0
2017-May-15 12:30N 47°40' W 122°13'0 0.0
2017-May-15 12:00N 47°40' W 122°13'0 0.0
2017-May-15 11:30N 47°40' W 122°13'0 0.0
2017-May-15 11:00N 47°40' W 122°13'0 0.0
2017-May-15 10:30N 47°40' W 122°13'0 0.0
2017-May-15 10:00N 47°40' W 122°13'0 0.0
2017-May-15 09:30N 47°40' W 122°13'0 0.0
2017-May-15 09:00N 47°40' W 122°13'0 0.0
2017-May-15 08:30N 47°40' W 122°13'0 0.0
2017-May-15 08:00N 47°40' W 122°13'0 0.0
2017-May-15 07:30N 47°40' W 122°13'0 0.0
2017-May-15 07:00N 47°40' W 122°13'0 0.0
2017-May-15 06:30N 47°40' W 122°13'0 0.0
2017-May-15 06:00N 47°40' W 122°13'0 0.0
2017-May-14 22:06N 47°40' W 122°13'0 0.0
2017-May-14 22:00N 47°40' W 122°13'4 7.2
2017-May-14 21:30N 47°37' W 122°15'1 1.8
2017-May-14 21:00N 47°38' W 122°15'3 5.5
2017-May-14 20:30N 47°40' W 122°13'0 0.0
2017-May-14 20:00N 47°40' W 122°13'0 0.2
2017-May-14 19:30N 47°40' W 122°12'0 0.0
2017-May-14 19:00N 47°40' W 122°12'0 0.2
2017-May-14 18:30N 47°40' W 122°13'0 0.0
2017-May-14 18:00N 47°40' W 122°13'0 0.0
2017-May-14 17:30N 47°40' W 122°13'0 0.0
2017-May-14 17:00N 47°40' W 122°13'0 0.0
2017-May-14 16:30N 47°40' W 122°13'0 0.0
2017-May-14 16:00N 47°40' W 122°13'0 0.0
2017-May-14 15:30N 47°40' W 122°13'0 0.0
2017-May-14 15:00N 47°40' W 122°13'0 0.0
2017-May-14 14:30N 47°40' W 122°13'0 0.0
2017-May-14 13:29N 47°40' W 122°13'0 0.0
2017-May-14 13:00N 47°40' W 122°13'0 0.0
2017-May-14 12:30N 47°40' W 122°13'0 0.0
2017-May-14 12:00N 47°40' W 122°13'0 0.0
2017-May-14 11:30N 47°40' W 122°13'0 0.0
2017-May-14 11:00N 47°40' W 122°13'0 0.0
2017-May-14 10:30N 47°40' W 122°13'0 0.0
2017-May-14 10:00N 47°40' W 122°13'0 0.0
2017-May-14 09:30N 47°40' W 122°13'0 0.0
2017-May-14 09:00N 47°40' W 122°13'0 0.0
2017-May-14 08:30N 47°40' W 122°13'0 0.0
2017-May-14 08:00N 47°40' W 122°13'0 0.0
2017-May-14 07:30N 47°40' W 122°13'0 0.0
2017-May-14 07:00N 47°40' W 122°13'3 5.3
2017-May-14 06:30N 47°39' W 122°16'3 5.1
2017-May-14 06:00N 47°39' W 122°20'1 2.5
2017-May-14 05:30N 47°38' W 122°20'0 0.0
2017-May-14 05:00N 47°38' W 122°20'0 0.0
2017-May-14 04:30N 47°38' W 122°20'2 3.2
2017-May-14 04:00N 47°39' W 122°19'3 6.7
2017-May-14 03:30N 47°38' W 122°15'2 4.9
2017-May-14 03:00N 47°36' W 122°14'3 6.1
2017-May-14 02:30N 47°38' W 122°16'2 4.1
2017-May-14 02:00N 47°39' W 122°19'2 3.3
2017-May-14 01:30N 47°38' W 122°20'0 0.0
2017-May-14 01:00N 47°38' W 122°20'0 0.0
2017-May-14 00:30N 47°38' W 122°20'0 0.0
2017-May-14 00:00N 47°38' W 122°20'0 0.0
2017-May-13 23:30N 47°38' W 122°20'2 4.6
2017-May-13 23:00N 47°40' W 122°22'0 0.3
2017-May-13 22:30N 47°40' W 122°23'0 0.6
2017-May-13 22:00N 47°40' W 122°23'0 0.6
2017-May-13 21:30N 47°40' W 122°23'0 0.0
2017-May-13 21:00N 47°40' W 122°23'0 0.1
2017-May-13 20:30N 47°40' W 122°23'0 0.1
2017-May-13 20:00N 47°40' W 122°23'0 0.1
2017-May-13 19:30N 47°40' W 122°22'1 1.1
2017-May-13 19:00N 47°40' W 122°23'1 1.0
2017-May-13 18:30N 47°40' W 122°23'0 0.0
2017-May-13 18:00N 47°40' W 122°23'0 0.0
2017-May-13 17:30N 47°40' W 122°23'1 1.2
2017-May-13 17:00N 47°39' W 122°22'  
Track history (hours):
 
Tides and Currents Weather Stations Pressure Air Temp Water Temp Dewpoint Dewpoint Depression Visibility Wind Speed Wind Dir Waves Ship Positions

Lady Mary

Owner: BLACKMAN, JOHN H, SEATTLE, WA. More information available from US FCC via Universal Licensing System and Coast Guard Vessel Documentation Center.

Last reported at 2017-May-23 16:59 UTC. Time now 2017-May-23 17:04 UTC.
Position N 47°36' W 122°20'.

Length 26 m.

Type: Passenger vessel. MMSI: 367013060.

Date/timePositionNaut miles runAvg speedWind from/ knotsBaromVisibWave heightAir tempDewpointWater temp
2017-May-23 16:59N 47°36' W 122°20'0 0.0
2017-May-23 16:29N 47°36' W 122°20'0 0.0
2017-May-23 16:00N 47°36' W 122°20'0 0.0
2017-May-23 15:30N 47°36' W 122°20'0 0.0
2017-May-23 15:00N 47°36' W 122°20'0 0.0
2017-May-23 14:28N 47°36' W 122°20'0 0.0
2017-May-23 13:29N 47°36' W 122°20'0 0.0
2017-May-23 12:59N 47°36' W 122°20'0 0.0
2017-May-23 12:29N 47°36' W 122°20'0 0.0
2017-May-23 11:59N 47°36' W 122°20'0 0.0
2017-May-23 11:30N 47°36' W 122°20'0 0.0
2017-May-23 11:00N 47°36' W 122°20'0 0.0
2017-May-23 10:27N 47°36' W 122°20'0 0.0
2017-May-23 09:55N 47°36' W 122°20'0 0.0
2017-May-23 09:28N 47°36' W 122°20'0 0.0
2017-May-23 08:59N 47°36' W 122°20'0 0.0
2017-May-23 08:29N 47°36' W 122°20'0 0.0
2017-May-23 07:59N 47°36' W 122°20'0 0.0
2017-May-23 07:29N 47°36' W 122°20'0 0.0
2017-May-23 07:00N 47°36' W 122°20'0 0.0
2017-May-23 06:30N 47°36' W 122°20'0 0.0
2017-May-23 06:00N 47°36' W 122°20'0 0.0
2017-May-23 05:24N 47°36' W 122°20'0 0.0
2017-May-23 04:58N 47°36' W 122°20'0 0.0
2017-May-23 04:29N 47°36' W 122°20'0 0.0
2017-May-23 03:59N 47°36' W 122°20'0 0.0
2017-May-23 03:29N 47°36' W 122°20'0 0.0
2017-May-23 02:59N 47°36' W 122°20'0 0.0
2017-May-23 02:30N 47°36' W 122°20'0 0.0
2017-May-23 02:00N 47°36' W 122°20'0 0.0
2017-May-23 01:24N 47°36' W 122°20'0 0.0
2017-May-23 01:00N 47°36' W 122°20'0 0.0
2017-May-23 00:29N 47°36' W 122°20'0 0.0
2017-May-22 23:55N 47°36' W 122°20'0 0.0
2017-May-22 23:29N 47°36' W 122°20'0 0.0
2017-May-22 22:59N 47°36' W 122°20'0 0.0
2017-May-22 22:30N 47°36' W 122°20'0 0.0
2017-May-22 22:00N 47°36' W 122°20'0 0.0
2017-May-22 21:30N 47°36' W 122°20'0 0.0
2017-May-22 20:58N 47°36' W 122°20'0 0.0
2017-May-22 20:31N 47°36' W 122°20'0 0.0
2017-May-22 19:58N 47°36' W 122°20'0 0.0
2017-May-22 19:28N 47°36' W 122°20'4 7.6
2017-May-22 19:00N 47°38' W 122°25'2 4.2
2017-May-22 18:31N 47°40' W 122°24'0 0.5
2017-May-22 18:00N 47°40' W 122°24'3 5.6
2017-May-22 17:30N 47°39' W 122°20'3 6.6
2017-May-22 17:00N 47°40' W 122°15'2 3.3
2017-May-22 16:26N 47°40' W 122°13'0 0.0
2017-May-22 15:57N 47°40' W 122°13'0 0.0
2017-May-22 15:27N 47°40' W 122°13'0 0.0
2017-May-22 14:57N 47°40' W 122°13'0 0.0
2017-May-22 13:58N 47°40' W 122°13'0 0.0
2017-May-22 13:28N 47°40' W 122°13'0 0.0
2017-May-22 12:59N 47°40' W 122°13'0 0.0
2017-May-22 12:29N 47°40' W 122°13'0 0.0
2017-May-22 11:56N 47°40' W 122°13'0 0.0
2017-May-22 11:30N 47°40' W 122°13'0 0.0
2017-May-22 11:00N 47°40' W 122°13'0 0.0
2017-May-22 10:30N 47°40' W 122°13'0 0.0
2017-May-22 09:55N 47°40' W 122°13'0 0.0
2017-May-22 09:28N 47°40' W 122°13'0 0.0
2017-May-22 08:58N 47°40' W 122°13'0 0.0
2017-May-22 08:23N 47°40' W 122°13'0 0.0
2017-May-22 07:56N 47°40' W 122°13'0 0.0
2017-May-22 07:26N 47°40' W 122°13'0 0.0
2017-May-22 06:57N 47°40' W 122°13'0 0.0
2017-May-22 06:30N 47°40' W 122°13'0 0.0
2017-May-22 05:57N 47°40' W 122°13'0 0.0
2017-May-22 05:28N 47°40' W 122°13'0 0.0
2017-May-22 04:52N 47°40' W 122°13'0 0.0
2017-May-22 04:28N 47°40' W 122°13'0 0.0
2017-May-22 03:11N 47°40' W 122°13'0 0.0
2017-May-22 02:42N 47°40' W 122°13'0 0.0
2017-May-22 02:24N 47°40' W 122°13'0 0.0
2017-May-22 01:51N 47°40' W 122°13'0 0.0
2017-May-22 01:13N 47°40' W 122°13'0 0.0
2017-May-22 00:55N 47°40' W 122°13'0 0.0
2017-May-22 00:28N 47°40' W 122°13'0 0.0
2017-May-21 23:55N 47°40' W 122°13'0 0.0
2017-May-21 23:29N 47°40' W 122°13'0 0.0
2017-May-21 22:59N 47°40' W 122°13'0 0.0
2017-May-21 22:29N 47°40' W 122°13'0 0.0
2017-May-21 21:50N 47°40' W 122°13'0 0.0
2017-May-21 20:57N 47°40' W 122°13'1 3.0
2017-May-21 20:30N 47°41' W 122°14'2 4.6
2017-May-21 20:00N 47°39' W 122°15'2 4.0
2017-May-21 19:30N 47°37' W 122°14'0 0.4
2017-May-21 19:00N 47°37' W 122°15'3 5.3
2017-May-21 18:30N 47°39' W 122°14'1 2.4
2017-May-21 17:55N 47°40' W 122°13'0 0.0
2017-May-21 17:29N 47°40' W 122°13'0 0.0
2017-May-21 16:59N 47°40' W 122°13'0 0.0
2017-May-21 16:26N 47°40' W 122°13'0 0.0
2017-May-21 15:57N 47°40' W 122°13'0 0.0
2017-May-21 15:27N 47°40' W 122°13'0 0.0
2017-May-21 14:57N 47°40' W 122°13'0 0.0
2017-May-21 13:58N 47°40' W 122°13'0 0.0
2017-May-21 13:28N 47°40' W 122°13'0 0.0
2017-May-21 12:59N 47°40' W 122°13'0 0.0
2017-May-21 12:29N 47°40' W 122°13'0 0.0
2017-May-21 11:59N 47°40' W 122°13'0 0.0
2017-May-21 11:30N 47°40' W 122°13'0 0.0
2017-May-21 11:00N 47°40' W 122°13'0 0.0
2017-May-21 10:30N 47°40' W 122°13'0 0.0
2017-May-21 09:58N 47°40' W 122°13'0 0.0
2017-May-21 09:28N 47°40' W 122°13'0 0.0
2017-May-21 08:58N 47°40' W 122°13'0 0.0
2017-May-21 08:29N 47°40' W 122°13'0 0.0
2017-May-21 07:59N 47°40' W 122°13'0 0.1
2017-May-21 07:30N 47°40' W 122°13'4 7.6
2017-May-21 07:00N 47°39' W 122°18'2 4.2
2017-May-21 06:31N 47°38' W 122°20'0 0.0
2017-May-21 06:01N 47°38' W 122°20'1 2.3
2017-May-21 05:30N 47°39' W 122°20'3 5.4
2017-May-21 05:00N 47°39' W 122°16'2 4.6
2017-May-21 04:31N 47°37' W 122°15'3 5.5
2017-May-21 04:01N 47°39' W 122°17'2 4.1
2017-May-21 03:31N 47°38' W 122°20'1 1.1
2017-May-21 03:01N 47°38' W 122°20'0 0.0
2017-May-21 02:31N 47°38' W 122°20'0 0.0
2017-May-21 02:01N 47°38' W 122°20'0 0.0
2017-May-21 01:31N 47°38' W 122°20'0 0.6
2017-May-21 01:01N 47°38' W 122°20'2 3.6
2017-May-21 00:31N 47°39' W 122°18'4 7.6
2017-May-21 00:00N 47°40' W 122°13'0 0.0
2017-May-20 23:30N 47°40' W 122°13'0 0.0
2017-May-20 23:00N 47°40' W 122°13'0 0.0
2017-May-20 22:30N 47°40' W 122°13'0 0.1
2017-May-20 22:00N 47°40' W 122°13'4 7.2
2017-May-20 21:31N 47°37' W 122°15'  
2017-May-17 20:39N 47°40' W 122°13'0 0.0
2017-May-17 20:27N 47°40' W 122°13'0 0.0
2017-May-17 19:57N 47°40' W 122°13'0 0.0
2017-May-17 19:30N 47°40' W 122°13'0 0.0
2017-May-17 18:58N 47°40' W 122°13'0 0.0
2017-May-17 18:25N 47°40' W 122°13'0 0.0
2017-May-17 17:58N 47°40' W 122°13'0 0.0
2017-May-17 17:29N 47°40' W 122°13'0 0.0
2017-May-17 16:59N 47°40' W 122°13'0 0.0
2017-May-17 16:06N 47°40' W 122°13'0 0.0
2017-May-17 16:00N 47°40' W 122°13'0 0.0
2017-May-17 15:30N 47°40' W 122°13'0 0.0
2017-May-17 15:00N 47°40' W 122°13'0 0.0
2017-May-17 14:25N 47°40' W 122°13'0 0.0
2017-May-17 13:25N 47°40' W 122°13'0 0.0
2017-May-17 12:56N 47°40' W 122°13'0 0.0
2017-May-17 12:14N 47°40' W 122°13'0 0.0
2017-May-17 11:56N 47°40' W 122°13'0 0.0
2017-May-17 10:16N 47°40' W 122°13'0 0.0
2017-May-17 09:58N 47°40' W 122°13'0 0.0
2017-May-17 09:28N 47°40' W 122°13'0 0.0
2017-May-17 08:58N 47°40' W 122°13'0 0.0
2017-May-17 08:29N 47°40' W 122°13'0 0.0
2017-May-17 07:59N 47°40' W 122°13'0 0.0
2017-May-17 07:29N 47°40' W 122°13'0 0.0
2017-May-17 06:54N 47°40' W 122°13'0 0.0
2017-May-17 06:24N 47°40' W 122°13'0 0.0
2017-May-17 05:55N 47°40' W 122°13'0 0.0
2017-May-17 05:25N 47°40' W 122°13'0 0.0
2017-May-17 04:55N 47°40' W 122°13'0 0.0
2017-May-17 03:50N 47°40' W 122°13'0 0.3
2017-May-17 03:30N 47°40' W 122°13'4 7.6
2017-May-17 02:57N 47°39' W 122°18'1 3.3
2017-May-17 02:30N 47°38' W 122°20'2 3.6
2017-May-17 01:59N 47°39' W 122°18'4 7.3
2017-May-17 01:30N 47°40' W 122°13'1 1.2
2017-May-17 01:00N 47°40' W 122°13'0 0.0
2017-May-17 00:30N 47°40' W 122°13'0 0.0
2017-May-17 00:00N 47°40' W 122°13'0 0.0
2017-May-16 23:30N 47°40' W 122°13'0 0.0
2017-May-16 23:00N 47°40' W 122°13'0 0.0
2017-May-16 22:30N 47°40' W 122°13'0 0.0
2017-May-16 22:00N 47°40' W 122°13'0 0.0
2017-May-16 21:29N 47°40' W 122°13'0 0.0
2017-May-16 21:00N 47°40' W 122°13'0 0.0
2017-May-16 20:30N 47°40' W 122°13'0 0.0
2017-May-16 20:00N 47°40' W 122°13'0 0.0
2017-May-16 19:30N 47°40' W 122°13'0 0.0
2017-May-16 19:00N 47°40' W 122°13'0 0.0
2017-May-16 18:30N 47°40' W 122°13'0 0.0
2017-May-16 18:00N 47°40' W 122°13'0 0.0
2017-May-16 17:30N 47°40' W 122°13'0 0.0
2017-May-16 17:00N 47°40' W 122°13'0 0.0
2017-May-16 16:30N 47°40' W 122°13'0 0.0
2017-May-16 16:00N 47°40' W 122°13'0 0.0
2017-May-16 15:30N 47°40' W 122°13'0 0.0
2017-May-16 15:00N 47°40' W 122°13'0 0.0
2017-May-16 14:00N 47°40' W 122°13'0 0.0
2017-May-16 13:30N 47°40' W 122°13'0 0.0
2017-May-16 13:00N 47°40' W 122°13'0 0.0
2017-May-16 12:30N 47°40' W 122°13'0 0.0
2017-May-16 12:00N 47°40' W 122°13'0 0.0
2017-May-16 11:30N 47°40' W 122°13'0 0.0
2017-May-16 11:00N 47°40' W 122°13'0 0.0
2017-May-16 10:30N 47°40' W 122°13'0 0.0
2017-May-16 10:00N 47°40' W 122°13'0 0.0
2017-May-16 09:30N 47°40' W 122°13'0 0.0
2017-May-16 09:00N 47°40' W 122°13'0 0.0
2017-May-16 08:30N 47°40' W 122°13'0 0.0
2017-May-16 08:00N 47°40' W 122°13'0 0.0
2017-May-16 07:30N 47°40' W 122°13'0 0.0
2017-May-16 07:00N 47°40' W 122°13'0 0.0
2017-May-16 06:30N 47°40' W 122°13'0 0.0
2017-May-16 06:00N 47°40' W 122°13'0 0.0
2017-May-16 05:30N 47°40' W 122°13'0 0.0
2017-May-16 05:00N 47°40' W 122°13'0 0.0
2017-May-16 04:30N 47°40' W 122°13'0 0.0
2017-May-16 04:00N 47°40' W 122°13'0 0.0
2017-May-16 03:30N 47°40' W 122°13'0 0.0
2017-May-16 03:00N 47°40' W 122°13'0 0.0
2017-May-16 02:30N 47°40' W 122°13'0 0.0
2017-May-16 02:00N 47°40' W 122°13'0 0.0
2017-May-16 01:30N 47°40' W 122°13'0 0.0
2017-May-16 01:00N 47°40' W 122°13'0 0.0
2017-May-16 00:30N 47°40' W 122°13'0 0.0
2017-May-16 00:00N 47°40' W 122°13'0 0.0
2017-May-15 23:30N 47°40' W 122°13'0 0.0
2017-May-15 23:00N 47°40' W 122°13'0 0.0
2017-May-15 22:30N 47°40' W 122°13'0 0.0
2017-May-15 22:00N 47°40' W 122°13'0 0.0
2017-May-15 21:30N 47°40' W 122°13'0 0.0
2017-May-15 21:00N 47°40' W 122°13'0 0.0
2017-May-15 20:30N 47°40' W 122°13'0 0.0
2017-May-15 19:59N 47°40' W 122°13'0 0.0
2017-May-15 19:30N 47°40' W 122°13'0 0.0
2017-May-15 19:00N 47°40' W 122°13'0 0.0
2017-May-15 18:30N 47°40' W 122°13'0 0.0
2017-May-15 18:00N 47°40' W 122°13'0 0.0
2017-May-15 17:30N 47°40' W 122°13'0 0.0
2017-May-15 17:00N 47°40' W 122°13'0 0.0
2017-May-15 16:30N 47°40' W 122°13'0 0.0
2017-May-15 16:00N 47°40' W 122°13'0 0.0
2017-May-15 15:30N 47°40' W 122°13'0 0.0
2017-May-15 15:00N 47°40' W 122°13'0 0.0
2017-May-15 13:50N 47°40' W 122°13'0 0.0
2017-May-15 13:30N 47°40' W 122°13'0 0.0
2017-May-15 13:00N 47°40' W 122°13'0 0.0
2017-May-15 12:30N 47°40' W 122°13'0 0.0
2017-May-15 12:00N 47°40' W 122°13'0 0.0
2017-May-15 11:30N 47°40' W 122°13'0 0.0
2017-May-15 11:00N 47°40' W 122°13'0 0.0
2017-May-15 10:30N 47°40' W 122°13'0 0.0
2017-May-15 10:00N 47°40' W 122°13'0 0.0
2017-May-15 09:30N 47°40' W 122°13'0 0.0
2017-May-15 09:00N 47°40' W 122°13'0 0.0
2017-May-15 08:30N 47°40' W 122°13'0 0.0
2017-May-15 08:00N 47°40' W 122°13'0 0.0
2017-May-15 07:30N 47°40' W 122°13'0 0.0
2017-May-15 07:00N 47°40' W 122°13'0 0.0
2017-May-15 06:30N 47°40' W 122°13'0 0.0
2017-May-15 06:00N 47°40' W 122°13'0 0.0
2017-May-14 22:06N 47°40' W 122°13'0 0.0
2017-May-14 22:00N 47°40' W 122°13'4 7.2
2017-May-14 21:30N 47°37' W 122°15'1 1.8
2017-May-14 21:00N 47°38' W 122°15'3 5.5
2017-May-14 20:30N 47°40' W 122°13'0 0.0
2017-May-14 20:00N 47°40' W 122°13'0 0.2
2017-May-14 19:30N 47°40' W 122°12'0 0.0
2017-May-14 19:00N 47°40' W 122°12'0 0.2
2017-May-14 18:30N 47°40' W 122°13'0 0.0
2017-May-14 18:00N 47°40' W 122°13'0 0.0
2017-May-14 17:30N 47°40' W 122°13'0 0.0
2017-May-14 17:00N 47°40' W 122°13'0 0.0
2017-May-14 16:30N 47°40' W 122°13'0 0.0
2017-May-14 16:00N 47°40' W 122°13'0 0.0
2017-May-14 15:30N 47°40' W 122°13'0 0.0
2017-May-14 15:00N 47°40' W 122°13'0 0.0
2017-May-14 14:30N 47°40' W 122°13'0 0.0
2017-May-14 13:29N 47°40' W 122°13'0 0.0
2017-May-14 13:00N 47°40' W 122°13'0 0.0
2017-May-14 12:30N 47°40' W 122°13'0 0.0
2017-May-14 12:00N 47°40' W 122°13'0 0.0
2017-May-14 11:30N 47°40' W 122°13'0 0.0
2017-May-14 11:00N 47°40' W 122°13'0 0.0
2017-May-14 10:30N 47°40' W 122°13'0 0.0
2017-May-14 10:00N 47°40' W 122°13'0 0.0
2017-May-14 09:30N 47°40' W 122°13'0 0.0
2017-May-14 09:00N 47°40' W 122°13'0 0.0
2017-May-14 08:30N 47°40' W 122°13'0 0.0
2017-May-14 08:00N 47°40' W 122°13'0 0.0
2017-May-14 07:30N 47°40' W 122°13'0 0.0
2017-May-14 07:00N 47°40' W 122°13'3 5.3
2017-May-14 06:30N 47°39' W 122°16'3 5.1
2017-May-14 06:00N 47°39' W 122°20'1 2.5
2017-May-14 05:30N 47°38' W 122°20'0 0.0
2017-May-14 05:00N 47°38' W 122°20'0 0.0
2017-May-14 04:30N 47°38' W 122°20'2 3.2
2017-May-14 04:00N 47°39' W 122°19'3 6.7
2017-May-14 03:30N 47°38' W 122°15'2 4.9
2017-May-14 03:00N 47°36' W 122°14'3 6.1
2017-May-14 02:30N 47°38' W 122°16'2 4.1
2017-May-14 02:00N 47°39' W 122°19'2 3.3
2017-May-14 01:30N 47°38' W 122°20'0 0.0
2017-May-14 01:00N 47°38' W 122°20'0 0.0
2017-May-14 00:30N 47°38' W 122°20'0 0.0
2017-May-14 00:00N 47°38' W 122°20'0 0.0
2017-May-13 23:30N 47°38' W 122°20'2 4.6
2017-May-13 23:00N 47°40' W 122°22'0 0.3
2017-May-13 22:30N 47°40' W 122°23'0 0.6
2017-May-13 22:00N 47°40' W 122°23'0 0.6
2017-May-13 21:30N 47°40' W 122°23'0 0.0
2017-May-13 21:00N 47°40' W 122°23'0 0.1
2017-May-13 20:30N 47°40' W 122°23'0 0.1
2017-May-13 20:00N 47°40' W 122°23'0 0.1
2017-May-13 19:30N 47°40' W 122°22'1 1.1
2017-May-13 19:00N 47°40' W 122°23'1 1.0
2017-May-13 18:30N 47°40' W 122°23'0 0.0
2017-May-13 18:00N 47°40' W 122°23'0 0.0
2017-May-13 17:30N 47°40' W 122°23'1 1.2
2017-May-13 17:00N 47°39' W 122°22'  

Dump ship's entire track history